createdAt,value
2022-09-26T00:00:53.502Z,8.45
2022-09-26T00:03:20.725Z,9.55
2022-09-26T00:05:47.978Z,10.50
2022-09-26T00:08:15.136Z,3.83
2022-09-26T00:10:42.383Z,9.40
2022-09-26T00:13:09.572Z,7.15
2022-09-26T00:15:36.758Z,8.35
2022-09-26T00:18:03.947Z,12.95
2022-09-26T00:20:31.120Z,5.10
2022-09-26T00:22:58.332Z,7.28
2022-09-26T00:25:26.997Z,5.20
2022-09-26T00:27:54.156Z,5.18
2022-09-26T00:30:21.479Z,9.98
2022-09-26T00:32:48.897Z,7.25
2022-09-26T00:35:16.064Z,5.22
2022-09-26T00:37:43.257Z,6.88
2022-09-26T00:40:11.122Z,8.77
2022-09-26T00:42:38.381Z,7.20
2022-09-26T00:45:05.763Z,7.32
2022-09-26T00:47:45.562Z,8.05
2022-09-26T00:50:13.416Z,8.60
2022-09-26T00:52:43.851Z,11.65
2022-09-26T00:55:14.128Z,5.47
2022-09-26T00:57:46.761Z,6.80
2022-09-26T01:00:15.217Z,8.48
2022-09-26T01:02:43.514Z,6.35
2022-09-26T01:05:13.482Z,5.75
2022-09-26T01:07:40.792Z,7.47
2022-09-26T01:10:08.121Z,6.93
2022-09-26T01:12:36.799Z,11.13
2022-09-26T01:15:05.276Z,9.95
2022-09-26T01:17:32.484Z,6.95
2022-09-26T01:19:59.584Z,9.32
2022-09-26T01:22:27.013Z,9.00
2022-09-26T01:25:09.569Z,9.07
2022-09-26T01:27:55.253Z,8.95
2022-09-26T01:30:28.976Z,6.28
2022-09-26T01:32:59.992Z,7.57
2022-09-26T01:35:36.416Z,13.48
2022-09-26T01:38:11.652Z,7.53
2022-09-26T01:40:51.004Z,11.07
2022-09-26T01:43:24.041Z,9.75
2022-09-26T01:45:53.685Z,7.53
2022-09-26T01:48:25.623Z,6.72
2022-09-26T01:51:04.774Z,8.30
2022-09-26T01:54:01.193Z,10.57
2022-09-26T01:56:29.741Z,12.98
2022-09-26T01:59:08.874Z,5.60
2022-09-26T02:01:38.017Z,8.65
2022-09-26T02:04:11.187Z,6.47
2022-09-26T02:06:41.355Z,8.35
2022-09-26T02:09:11.237Z,10.07
2022-09-26T02:11:40.129Z,9.38
2022-09-26T02:14:11.870Z,5.55
2022-09-26T02:16:40.758Z,8.18
2022-09-26T02:19:07.991Z,12.80
2022-09-26T02:21:35.158Z,8.25
2022-09-26T02:24:02.526Z,8.07
2022-09-26T02:26:29.934Z,12.43
2022-09-26T02:28:57.633Z,7.20
2022-09-26T02:31:27.125Z,6.43
2022-09-26T02:33:54.765Z,8.98
2022-09-26T02:36:22.735Z,6.50
2022-09-26T02:38:50.011Z,6.90
2022-09-26T02:41:19.970Z,7.72
2022-09-26T02:44:06.150Z,9.13
2022-09-26T02:46:52.117Z,5.95
2022-09-26T02:49:28.352Z,13.32
2022-09-26T02:52:14.114Z,10.63
2022-09-26T02:57:21.469Z,10.30
2022-09-26T02:59:54.735Z,7.00
2022-09-26T03:02:24.728Z,7.57
2022-09-26T03:04:52.188Z,7.43
2022-09-26T03:07:25.357Z,7.57
2022-09-26T03:09:53.411Z,11.90
2022-09-26T03:12:21.174Z,5.72
2022-09-26T03:14:48.922Z,8.15
2022-09-26T03:17:18.925Z,6.30
2022-09-26T03:19:54.040Z,6.35
2022-09-26T03:22:21.233Z,9.95
2022-09-26T03:24:48.364Z,6.47
2022-09-26T03:27:17.111Z,7.40
2022-09-26T03:29:44.380Z,6.30
2022-09-26T03:32:11.597Z,10.40
2022-09-26T03:34:39.936Z,7.10
2022-09-26T03:37:07.321Z,8.93
2022-09-26T03:39:34.512Z,6.80
2022-09-26T03:42:02.620Z,6.97
2022-09-26T03:44:30.168Z,9.85
2022-09-26T03:46:57.328Z,5.38
2022-09-26T03:49:24.457Z,7.45
2022-09-26T03:51:51.666Z,9.52
2022-09-26T03:54:18.833Z,10.30
2022-09-26T03:56:46.021Z,10.38
2022-09-26T03:59:13.301Z,11.10
2022-09-26T04:01:41.568Z,7.72
2022-09-26T04:04:08.749Z,10.82
2022-09-26T04:06:35.955Z,8.82
2022-09-26T04:09:03.273Z,11.18
2022-09-26T04:11:30.512Z,9.23
2022-09-26T04:13:57.681Z,14.13
2022-09-26T04:16:24.915Z,15.23
2022-09-26T04:18:56.720Z,11.98
2022-09-26T04:21:24.704Z,13.15
2022-09-26T04:23:53.429Z,11.32
2022-09-26T04:26:23.578Z,17.17
2022-09-26T04:28:55.366Z,13.80
2022-09-26T04:31:23.748Z,13.60
2022-09-26T04:33:51.597Z,14.35
2022-09-26T04:36:18.815Z,18.80
2022-09-26T04:38:46.005Z,13.05
2022-09-26T04:41:20.171Z,15.77
2022-09-26T04:43:47.458Z,18.83
2022-09-26T04:46:22.828Z,16.85
2022-09-26T04:48:52.261Z,17.67
2022-09-26T04:51:20.221Z,14.57
2022-09-26T04:53:47.425Z,13.70
2022-09-26T04:56:15.794Z,14.18
2022-09-26T04:58:43.519Z,19.20
2022-09-26T05:01:15.619Z,15.63
2022-09-26T05:03:44.268Z,14.48
2022-09-26T05:06:12.306Z,15.52
2022-09-26T05:08:41.152Z,15.27
2022-09-26T05:11:08.740Z,14.27
2022-09-26T05:13:36.539Z,20.20
2022-09-26T05:16:03.991Z,18.25
2022-09-26T05:18:31.203Z,20.45
2022-09-26T05:21:01.234Z,16.85
2022-09-26T05:23:47.071Z,17.48
2022-09-26T05:28:48.782Z,23.35
2022-09-26T05:31:16.601Z,23.00
2022-09-26T05:33:44.540Z,17.83
2022-09-26T05:36:11.908Z,18.45
2022-09-26T05:38:39.157Z,17.50
2022-09-26T05:41:06.498Z,22.15
2022-09-26T05:43:34.978Z,26.67
2022-09-26T05:46:06.164Z,21.73
2022-09-26T05:48:34.021Z,23.80
2022-09-26T05:51:04.962Z,24.15
2022-09-26T05:53:33.040Z,23.65
2022-09-26T05:56:00.200Z,20.67
2022-09-26T05:58:34.753Z,20.42
2022-09-26T06:01:02.825Z,25.63
2022-09-26T06:03:34.573Z,19.27
2022-09-26T06:06:03.050Z,24.80
2022-09-26T06:08:30.302Z,19.45
2022-09-26T06:11:01.350Z,17.63
2022-09-26T06:13:28.597Z,23.80
2022-09-26T06:15:57.416Z,23.80
2022-09-26T06:18:24.614Z,18.05
2022-09-26T06:20:51.771Z,18.38
2022-09-26T06:23:18.938Z,15.23
2022-09-26T06:25:46.084Z,20.80
2022-09-26T06:28:13.275Z,18.10
2022-09-26T06:30:40.417Z,19.73
2022-09-26T06:33:07.539Z,20.00
2022-09-26T06:35:34.774Z,19.65
2022-09-26T06:38:02.797Z,18.52
2022-09-26T06:40:29.970Z,19.17
2022-09-26T06:42:57.211Z,16.08
2022-09-26T06:45:24.384Z,18.00
2022-09-26T06:47:51.525Z,14.63
2022-09-26T06:50:18.990Z,15.85
2022-09-26T06:52:46.113Z,20.70
2022-09-26T06:55:14.657Z,16.77
2022-09-26T06:57:42.676Z,13.38
2022-09-26T07:00:11.179Z,19.05
2022-09-26T07:02:38.382Z,19.15
2022-09-26T07:05:05.973Z,14.45
2022-09-26T07:07:33.493Z,20.23
2022-09-26T07:10:00.770Z,12.65
2022-09-26T07:12:28.410Z,14.10
2022-09-26T07:14:55.566Z,13.38
2022-09-26T07:17:22.753Z,13.70
2022-09-26T07:19:52.879Z,16.65
2022-09-26T07:22:20.056Z,14.35
2022-09-26T07:24:50.260Z,14.95
2022-09-26T07:27:18.045Z,14.73
2022-09-26T07:29:47.273Z,11.38
2022-09-26T07:32:14.792Z,10.45
2022-09-26T07:34:42.849Z,11.10
2022-09-26T07:37:10.121Z,12.48
2022-09-26T07:39:37.246Z,11.98
2022-09-26T07:42:04.693Z,9.48
2022-09-26T07:47:37.726Z,9.00
2022-09-26T07:52:43.726Z,9.55
2022-09-26T07:55:11.738Z,11.38
2022-09-26T07:57:39.021Z,10.15
2022-09-26T08:00:08.156Z,7.80
2022-09-26T08:02:35.967Z,12.10
2022-09-26T08:05:06.294Z,11.10
2022-09-26T08:07:35.569Z,8.95
2022-09-26T08:10:03.132Z,9.93
2022-09-26T08:12:35.055Z,12.18
2022-09-26T08:15:02.505Z,9.75
2022-09-26T08:17:32.956Z,7.72
2022-09-26T08:20:03.249Z,7.85
2022-09-26T08:22:30.395Z,9.50
2022-09-26T08:24:58.231Z,10.68
2022-09-26T08:27:25.395Z,8.32
2022-09-26T08:29:52.747Z,9.90
2022-09-26T08:32:20.964Z,10.13
2022-09-26T08:34:49.219Z,8.32
2022-09-26T08:37:16.337Z,7.93
2022-09-26T08:39:43.506Z,8.15
2022-09-26T08:42:28.740Z,7.57
2022-09-26T08:45:52.855Z,8.73
2022-09-26T08:48:28.957Z,13.07
2022-09-26T08:50:59.689Z,7.90
2022-09-26T08:53:29.154Z,8.93
2022-09-26T08:55:58.065Z,11.20
2022-09-26T08:58:29.173Z,9.63
2022-09-26T09:00:59.844Z,11.05
2022-09-26T09:03:30.507Z,6.03
2022-09-26T09:06:02.525Z,8.50
2022-09-26T09:08:36.696Z,10.80
2022-09-26T09:11:08.865Z,8.77
2022-09-26T09:13:39.245Z,8.55
2022-09-26T09:16:15.424Z,7.65
2022-09-26T09:18:45.748Z,8.60
2022-09-26T09:21:35.829Z,6.90
2022-09-26T09:24:17.152Z,6.30
2022-09-26T09:29:57.797Z,7.25
2022-09-26T09:32:28.810Z,8.52
2022-09-26T09:34:56.440Z,4.53
2022-09-26T09:37:29.242Z,5.10
2022-09-26T09:39:57.322Z,6.40
2022-09-26T09:42:42.428Z,7.15
2022-09-26T09:45:32.872Z,10.13
2022-09-26T09:48:00.039Z,10.63
2022-09-26T09:50:27.173Z,7.15
2022-09-26T09:52:57.315Z,9.45
2022-09-26T09:55:46.254Z,7.80
2022-09-26T09:58:22.370Z,8.52
2022-09-26T10:00:57.679Z,7.70
2022-09-26T10:03:40.370Z,9.90
2022-09-26T10:06:45.294Z,7.80
2022-09-26T10:08:57.750Z,8.40
2022-09-26T10:11:47.974Z,9.75
2022-09-26T10:14:28.691Z,8.98
2022-09-26T10:17:10.851Z,8.23
2022-09-26T10:19:39.153Z,9.18
2022-09-26T10:22:10.075Z,7.80
2022-09-26T10:24:41.176Z,5.50
2022-09-26T10:27:22.528Z,10.75
2022-09-26T10:29:57.761Z,9.80
2022-09-26T10:32:25.021Z,10.48
2022-09-26T10:35:11.018Z,11.82
2022-09-26T10:37:38.407Z,8.65
2022-09-26T10:40:36.582Z,10.05
2022-09-26T10:43:20.910Z,7.65
2022-09-26T10:45:54.860Z,9.35
2022-09-26T10:48:28.970Z,6.70
2022-09-26T10:51:01.865Z,12.63
2022-09-26T10:53:33.125Z,10.65
2022-09-26T10:56:02.252Z,11.23
2022-09-26T10:58:30.154Z,11.68
2022-09-26T11:01:00.410Z,11.02
2022-09-26T11:03:39.754Z,12.75
2022-09-26T11:06:23.907Z,12.23
2022-09-26T11:08:53.916Z,10.57
2022-09-26T11:11:22.409Z,11.45
2022-09-26T11:14:03.415Z,9.93
2022-09-26T11:16:39.229Z,12.85
2022-09-26T11:19:14.822Z,12.48
2022-09-26T11:21:45.651Z,11.95
2022-09-26T11:24:25.133Z,12.75
2022-09-26T11:27:01.736Z,12.00
2022-09-26T11:29:43.015Z,9.60
2022-09-26T11:32:27.866Z,8.75
2022-09-26T11:35:02.523Z,10.00
2022-09-26T11:37:39.480Z,12.10
2022-09-26T11:40:13.241Z,11.18
2022-09-26T11:42:54.760Z,11.05
2022-09-26T11:45:31.028Z,11.98
2022-09-26T11:47:59.819Z,12.15
2022-09-26T11:50:45.831Z,11.05
2022-09-26T11:53:29.445Z,7.30
2022-09-26T11:56:16.002Z,9.80
2022-09-26T11:58:50.787Z,9.45
2022-09-26T12:01:27.386Z,11.27
2022-09-26T12:04:15.835Z,8.70
2022-09-26T12:06:56.136Z,11.52
2022-09-26T12:09:38.886Z,12.60
2022-09-26T12:12:06.997Z,10.40
2022-09-26T12:14:38.934Z,8.10
2022-09-26T12:17:09.123Z,7.68
2022-09-26T12:19:39.156Z,9.77
2022-09-26T12:22:29.382Z,7.53
2022-09-26T12:25:20.146Z,8.52
2022-09-26T12:27:50.450Z,11.02
2022-09-26T12:30:21.966Z,9.48
2022-09-26T12:33:07.697Z,10.43
2022-09-26T12:35:52.048Z,9.27
2022-09-26T12:38:20.503Z,9.43
2022-09-26T12:41:13.760Z,8.70
2022-09-26T12:43:56.179Z,9.60
2022-09-26T12:46:48.934Z,8.68
2022-09-26T12:49:28.684Z,9.38
2022-09-26T12:51:58.194Z,10.70
2022-09-26T12:54:25.325Z,9.93
2022-09-26T12:57:17.267Z,12.40
2022-09-26T12:59:49.798Z,8.20
2022-09-26T13:02:20.214Z,11.88
2022-09-26T13:04:56.903Z,10.23
2022-09-26T13:07:31.728Z,7.93
2022-09-26T13:10:14.135Z,11.85
2022-09-26T13:12:50.620Z,10.40
2022-09-26T13:15:20.602Z,9.90
2022-09-26T13:17:54.551Z,13.07
2022-09-26T13:20:28.937Z,7.88
2022-09-26T13:23:07.837Z,11.43
2022-09-26T13:25:39.209Z,9.23
2022-09-26T13:28:12.178Z,8.98
2022-09-26T13:30:41.548Z,6.93
2022-09-26T13:33:08.751Z,10.25
2022-09-26T13:35:37.564Z,6.15
2022-09-26T13:38:09.532Z,8.45
2022-09-26T13:40:55.525Z,9.95
2022-09-26T13:43:43.826Z,6.50
2022-09-26T13:46:12.854Z,8.90
2022-09-26T13:48:49.196Z,5.43
2022-09-26T13:51:19.600Z,7.07
2022-09-26T13:53:59.980Z,6.80
2022-09-26T13:56:44.209Z,8.50
2022-09-26T13:59:18.247Z,6.28
2022-09-26T14:02:05.736Z,5.72
2022-09-26T14:04:33.801Z,5.82
2022-09-26T14:07:27.144Z,6.47
2022-09-26T14:10:06.313Z,6.93
2022-09-26T14:12:50.633Z,5.18
2022-09-26T14:15:28.461Z,4.55
2022-09-26T14:18:06.443Z,6.68
2022-09-26T14:20:38.488Z,9.27
2022-09-26T14:23:05.607Z,6.70
2022-09-26T14:25:47.823Z,4.35
2022-09-26T14:28:37.381Z,7.75
2022-09-26T14:31:20.012Z,4.72
2022-09-26T14:33:47.372Z,6.28
2022-09-26T14:36:18.736Z,4.60
2022-09-26T14:38:50.618Z,4.68
2022-09-26T14:41:19.389Z,5.05
2022-09-26T14:43:47.266Z,3.78
2022-09-26T14:46:23.986Z,4.60
2022-09-26T14:48:58.677Z,4.70
2022-09-26T14:51:28.476Z,3.65
2022-09-26T14:54:00.322Z,3.72
2022-09-26T14:56:27.469Z,4.22
2022-09-26T14:58:55.283Z,3.95
2022-09-26T15:01:25.459Z,3.03
2022-09-26T15:03:52.610Z,5.43
2022-09-26T15:06:20.721Z,4.15
2022-09-26T15:08:48.228Z,4.15
2022-09-26T15:11:26.208Z,4.70
2022-09-26T15:13:55.246Z,4.35
2022-09-26T15:16:25.660Z,3.95
2022-09-26T15:18:59.006Z,3.28
2022-09-26T15:21:29.362Z,2.90
2022-09-26T15:23:57.525Z,4.03
2022-09-26T15:26:29.275Z,3.65
2022-09-26T15:28:57.734Z,2.67
2022-09-26T15:31:29.913Z,3.60
2022-09-26T15:34:00.728Z,3.60
2022-09-26T15:36:32.079Z,2.67
2022-09-26T15:38:59.682Z,3.28
2022-09-26T15:41:45.604Z,2.42
2022-09-26T15:44:20.367Z,2.47
2022-09-26T15:46:49.549Z,3.70
2022-09-26T15:49:21.436Z,3.38
2022-09-26T15:51:51.028Z,3.78
2022-09-26T15:54:22.998Z,4.03
2022-09-26T15:56:51.270Z,2.47
2022-09-26T15:59:21.257Z,2.60
2022-09-26T16:01:48.910Z,2.85
2022-09-26T16:04:29.544Z,4.85
2022-09-26T16:06:56.733Z,3.63
2022-09-26T16:09:25.752Z,3.50
2022-09-26T16:11:56.313Z,4.45
2022-09-26T16:14:26.645Z,3.35
2022-09-26T16:16:55.584Z,5.30
2022-09-26T16:19:35.650Z,5.43
2022-09-26T16:22:22.500Z,5.22
2022-09-26T16:24:51.535Z,6.28
2022-09-26T16:27:24.099Z,6.13
2022-09-26T16:29:52.323Z,7.00
2022-09-26T16:32:21.208Z,4.28
2022-09-26T16:34:48.970Z,5.07
2022-09-26T16:37:23.197Z,4.63
2022-09-26T16:39:59.602Z,4.75
2022-09-26T16:42:31.200Z,11.85
2022-09-26T16:44:59.098Z,10.75
2022-09-26T16:47:33.181Z,6.85
2022-09-26T16:50:19.704Z,5.80
2022-09-26T16:52:46.956Z,5.72
2022-09-26T16:55:14.368Z,9.15
2022-09-26T16:57:48.961Z,6.63
2022-09-26T17:00:36.820Z,6.70
2022-09-26T17:03:05.122Z,7.63
2022-09-26T17:05:32.359Z,8.63
2022-09-26T17:07:59.653Z,7.25
2022-09-26T17:10:27.166Z,7.78
2022-09-26T17:12:54.572Z,6.53
2022-09-26T17:15:26.182Z,9.93
2022-09-26T17:17:54.285Z,8.38
2022-09-26T17:20:22.230Z,6.95
2022-09-26T17:22:49.393Z,4.93
2022-09-26T17:25:18.777Z,6.20
2022-09-26T17:27:49.246Z,10.18
2022-09-26T17:30:17.831Z,6.22
2022-09-26T17:32:49.960Z,7.30
2022-09-26T17:35:32.136Z,8.18
2022-09-26T17:38:00.142Z,8.65
2022-09-26T17:40:28.716Z,9.90
2022-09-26T17:42:57.020Z,6.68
2022-09-26T17:45:51.529Z,6.45
2022-09-26T17:48:26.276Z,6.45
2022-09-26T17:50:57.138Z,7.13
2022-09-26T17:53:26.780Z,6.50
2022-09-26T17:55:53.975Z,7.93
2022-09-26T17:58:21.389Z,8.35
2022-09-26T18:00:51.184Z,6.30
2022-09-26T18:03:23.498Z,7.32
2022-09-26T18:05:50.928Z,8.02
2022-09-26T18:08:49.942Z,11.98
2022-09-26T18:11:18.718Z,9.10
2022-09-26T18:13:55.368Z,10.48
2022-09-26T18:16:23.259Z,15.25
2022-09-26T18:18:50.948Z,11.10
2022-09-26T18:21:19.525Z,24.17
2022-09-26T18:23:57.286Z,68.00
2022-09-26T18:26:42.045Z,32.53
2022-09-26T18:29:11.704Z,11.68
2022-09-26T18:31:41.347Z,10.82
2022-09-26T18:34:13.966Z,12.43
2022-09-26T18:36:41.125Z,13.85
2022-09-26T18:39:08.570Z,12.02
2022-09-26T18:41:35.875Z,14.68
2022-09-26T18:44:03.120Z,13.30
2022-09-26T18:46:30.971Z,15.18
2022-09-26T18:48:59.314Z,18.58
2022-09-26T18:51:27.247Z,15.35
2022-09-26T18:53:54.501Z,15.68
2022-09-26T18:56:40.175Z,13.25
2022-09-26T18:59:10.180Z,14.15
2022-09-26T19:01:40.139Z,14.73
2022-09-26T19:04:11.859Z,15.35
2022-09-26T19:06:41.696Z,17.00
2022-09-26T19:09:13.077Z,16.83
2022-09-26T19:11:40.222Z,18.30
2022-09-26T19:14:15.705Z,15.75
2022-09-26T19:19:10.169Z,15.88
2022-09-26T19:21:42.092Z,17.42
2022-09-26T19:24:20.986Z,17.13
2022-09-26T19:26:49.754Z,15.90
2022-09-26T19:29:20.959Z,16.88
2022-09-26T19:31:48.188Z,17.25
2022-09-26T19:34:16.107Z,18.98
2022-09-26T19:36:43.367Z,22.80
2022-09-26T19:39:14.251Z,20.30
2022-09-26T19:41:41.612Z,18.40
2022-09-26T19:44:08.979Z,18.58
2022-09-26T19:46:37.355Z,16.38
2022-09-26T19:49:05.492Z,24.38
2022-09-26T19:51:34.489Z,22.42
2022-09-26T19:54:06.122Z,21.95
2022-09-26T19:56:34.389Z,19.85
2022-09-26T19:59:01.929Z,23.45
2022-09-26T20:01:29.210Z,22.17
2022-09-26T20:03:56.418Z,19.50
2022-09-26T20:06:24.766Z,23.90
2022-09-26T20:08:56.435Z,22.90
2022-09-26T20:11:27.219Z,21.58
2022-09-26T20:14:13.137Z,22.50
2022-09-26T20:16:42.165Z,22.17
2022-09-26T20:19:11.637Z,24.60
2022-09-26T20:21:38.857Z,25.67
2022-09-26T20:24:07.484Z,22.45
2022-09-26T20:26:34.750Z,21.95
2022-09-26T20:29:02.119Z,24.42
2022-09-26T20:31:29.624Z,19.60
2022-09-26T20:34:00.135Z,22.27
2022-09-26T20:36:32.204Z,23.23
2022-09-26T20:39:01.052Z,19.33
2022-09-26T20:41:31.309Z,20.48
2022-09-26T20:44:04.054Z,22.55
2022-09-26T20:46:33.197Z,19.60
2022-09-26T20:49:02.427Z,26.00
2022-09-26T20:51:30.659Z,25.50
2022-09-26T20:53:59.746Z,20.65
2022-09-26T20:56:26.962Z,17.67
2022-09-26T20:58:54.150Z,22.20
2022-09-26T21:01:22.314Z,20.92
2022-09-26T21:03:51.034Z,22.02
2022-09-26T21:06:20.052Z,16.92
2022-09-26T21:08:48.069Z,20.85
2022-09-26T21:11:15.897Z,27.77
2022-09-26T21:13:43.241Z,19.25
2022-09-26T21:16:12.729Z,21.08
2022-09-26T21:18:40.311Z,26.35
2022-09-26T21:21:09.019Z,19.08
2022-09-26T21:23:43.260Z,21.05
2022-09-26T21:26:16.349Z,20.02
2022-09-26T21:28:43.616Z,23.88
2022-09-26T21:31:12.851Z,19.40
2022-09-26T21:33:40.037Z,26.92
2022-09-26T21:36:07.258Z,17.38
2022-09-26T21:38:34.461Z,17.58
2022-09-26T21:41:02.047Z,23.63
2022-09-26T21:43:32.738Z,13.90
2022-09-26T21:45:59.999Z,13.40
2022-09-26T21:48:27.933Z,21.10
2022-09-26T21:50:58.178Z,19.08
2022-09-26T21:53:30.937Z,17.05
2022-09-26T21:56:05.022Z,17.48
2022-09-26T21:58:36.952Z,22.75
2022-09-26T22:01:04.182Z,16.02
2022-09-26T22:03:32.105Z,13.32
2022-09-26T22:06:01.483Z,16.25
2022-09-26T22:08:33.053Z,15.98
2022-09-26T22:11:00.230Z,15.43
2022-09-26T22:13:27.436Z,16.80
2022-09-26T22:15:54.608Z,16.92
2022-09-26T22:18:22.001Z,17.08
2022-09-26T22:20:55.147Z,18.92
2022-09-26T22:23:22.464Z,22.48
2022-09-26T22:25:50.513Z,22.38
2022-09-26T22:28:18.297Z,14.73
2022-09-26T22:30:45.513Z,13.95
2022-09-26T22:33:13.347Z,20.52
2022-09-26T22:35:40.549Z,16.98
2022-09-26T22:38:07.750Z,15.05
2022-09-26T22:40:35.010Z,20.15
2022-09-26T22:43:02.327Z,16.33
2022-09-26T22:45:29.517Z,13.80
2022-09-26T22:47:57.531Z,13.05
2022-09-26T22:50:24.660Z,13.25
2022-09-26T22:52:51.915Z,13.98
2022-09-26T22:55:19.489Z,16.83
2022-09-26T22:57:50.948Z,19.13
2022-09-26T23:00:18.501Z,17.17
2022-09-26T23:02:45.730Z,24.75
2022-09-26T23:05:12.919Z,15.50
2022-09-26T23:07:40.247Z,20.77
2022-09-26T23:10:07.617Z,21.35
2022-09-26T23:12:34.767Z,21.80
2022-09-26T23:15:02.065Z,17.17
2022-09-26T23:17:29.208Z,15.00
2022-09-26T23:19:56.344Z,14.00
2022-09-26T23:22:23.496Z,14.63
2022-09-26T23:24:50.677Z,12.93
2022-09-26T23:27:17.873Z,13.48
2022-09-26T23:29:45.083Z,20.45
2022-09-26T23:32:12.250Z,13.13
2022-09-26T23:34:39.416Z,9.10
2022-09-26T23:37:06.609Z,13.35
2022-09-26T23:39:33.850Z,13.52
2022-09-26T23:42:00.998Z,9.18
2022-09-26T23:44:28.184Z,14.77
2022-09-26T23:46:55.380Z,19.77
2022-09-26T23:49:22.540Z,13.88
2022-09-26T23:51:49.737Z,13.80
2022-09-26T23:54:16.916Z,13.18
2022-09-26T23:56:44.116Z,15.65
2022-09-26T23:59:13.635Z,11.57
